Time;durP1;ratioP1;P1;durP2;ratioP2;P2;SDS_P1;SDS_P2;PMS_P1;PMS_P2;Temp;Humidity;BMP_temperature;BMP_pressure;BME280_temperature;BME280_humidity;BME280_pressure;Samples;Min_cycle;Max_cycle;Signal;HPM_P1;HPM_P2
2021/09/04 00:00:23;;;;;;;27.57;13.67;;;14.30;97.30;;;;;;5034278;28;20569;-82
2021/09/04 00:02:49;;;;;;;22.43;12.00;;;14.30;97.30;;;;;;5034504;28;20200;-82
2021/09/04 00:05:14;;;;;;;29.33;12.17;;;14.30;97.30;;;;;;5034943;28;20192;-83
2021/09/04 00:07:40;;;;;;;35.57;14.27;;;14.20;97.30;;;;;;5035321;28;20175;-83
2021/09/04 00:10:06;;;;;;;27.53;14.33;;;14.20;97.30;;;;;;5034662;28;20210;-82
2021/09/04 00:12:32;;;;;;;24.57;13.10;;;14.20;97.30;;;;;;5035825;28;20202;-83
2021/09/04 00:14:58;;;;;;;26.07;13.20;;;14.20;97.30;;;;;;5036659;28;20446;-82
2021/09/04 00:17:24;;;;;;;25.40;13.17;;;14.10;97.30;;;;;;5054700;28;20410;-83
2021/09/04 00:19:50;;;;;;;29.10;12.40;;;14.10;97.30;;;;;;5054113;28;20484;-82
2021/09/04 00:22:15;;;;;;;27.20;12.93;;;14.10;97.30;;;;;;5035159;28;20192;-83
2021/09/04 00:24:41;;;;;;;29.80;13.43;;;14.10;97.30;;;;;;5035214;28;20199;-83
2021/09/04 00:27:06;;;;;;;24.93;11.87;;;14.10;97.30;;;;;;5035161;28;20179;-83
2021/09/04 00:29:33;;;;;;;24.47;12.33;;;14.10;97.30;;;;;;5035331;28;20175;-83
2021/09/04 00:31:58;;;;;;;24.50;12.77;;;14.10;97.30;;;;;;5034437;28;20179;-83
2021/09/04 00:34:24;;;;;;;28.53;13.90;;;14.00;97.30;;;;;;5052056;28;20430;-83
2021/09/04 00:36:50;;;;;;;29.10;12.30;;;14.00;97.30;;;;;;5052724;28;20191;-82
2021/09/04 00:39:15;;;;;;;26.60;11.87;;;13.90;97.30;;;;;;5052723;28;20195;-83
2021/09/04 00:41:41;;;;;;;27.27;13.40;;;13.90;97.30;;;;;;5034754;28;20753;-83
2021/09/04 00:44:12;;;;;;;25.00;12.33;;;13.90;97.30;;;;;;5035834;28;20211;-83
2021/09/04 00:46:38;;;;;;;28.83;12.77;;;13.90;97.30;;;;;;5054819;28;20232;-83
2021/09/04 00:49:03;;;;;;;27.63;12.70;;;13.90;97.30;;;;;;5057025;28;20446;-83
2021/09/04 00:51:29;;;;;;;27.17;12.70;;;13.90;97.30;;;;;;5036893;28;20184;-83
2021/09/04 00:53:55;;;;;;;29.57;13.53;;;13.90;97.30;;;;;;5035511;28;20241;-82
2021/09/04 00:56:21;;;;;;;28.63;12.50;;;13.90;97.30;;;;;;5034679;28;20203;-83
2021/09/04 00:58:46;;;;;;;26.23;12.00;;;13.80;97.30;;;;;;5053789;28;20206;-82
2021/09/04 01:01:13;;;;;;;28.63;14.30;;;13.80;97.30;;;;;;5055696;28;20434;-82
2021/09/04 01:03:38;;;;;;;29.43;13.90;;;13.80;97.30;;;;;;5051821;28;20198;-83
2021/09/04 01:06:04;;;;;;;27.37;12.87;;;13.80;97.30;;;;;;5051150;28;20976;-83
2021/09/04 01:08:30;;;;;;;27.30;12.93;;;13.80;97.30;;;;;;5052318;28;20708;-82
2021/09/04 01:10:55;;;;;;;28.33;13.27;;;13.70;97.30;;;;;;5033769;28;20179;-82
2021/09/04 01:13:21;;;;;;;25.60;11.83;;;13.70;97.30;;;;;;5034797;28;20525;-83
2021/09/04 01:15:48;;;;;;;29.00;13.97;;;13.70;97.30;;;;;;5034048;28;20291;-82
2021/09/04 01:18:14;;;;;;;28.00;13.20;;;13.70;97.30;;;;;;5034959;28;20947;-83
2021/09/04 01:20:39;;;;;;;35.23;13.60;;;13.80;97.30;;;;;;5053801;28;20525;-82
2021/09/04 01:23:05;;;;;;;35.00;13.80;;;13.80;97.30;;;;;;5053898;28;20493;-82
2021/09/04 01:25:32;;;;;;;29.90;13.43;;;13.80;97.30;;;;;;5035616;28;20200;-82
2021/09/04 01:28:00;;;;;;;30.30;14.10;;;13.80;97.30;;;;;;5035017;28;20422;-82
2021/09/04 01:30:27;;;;;;;30.27;13.63;;;13.90;97.30;;;;;;5034168;28;20495;-82
2021/09/04 01:32:53;;;;;;;37.10;13.57;;;13.90;97.30;;;;;;5034519;28;20430;-82
2021/09/04 01:35:21;;;;;;;30.10;12.80;;;13.90;97.30;;;;;;5034573;28;20959;-82
2021/09/04 01:37:47;;;;;;;28.93;13.80;;;13.90;97.30;;;;;;5051889;28;20414;-82
2021/09/04 01:40:14;;;;;;;31.67;13.70;;;13.90;97.30;;;;;;5033553;28;20442;-82
2021/09/04 01:42:41;;;;;;;28.13;12.30;;;13.80;97.30;;;;;;5033629;28;20191;-82
2021/09/04 01:45:07;;;;;;;30.83;15.17;;;13.80;97.30;;;;;;5034368;28;20433;-83
2021/09/04 01:47:33;;;;;;;34.23;14.10;;;13.70;97.30;;;;;;5034278;28;20425;-83
2021/09/04 01:49:59;;;;;;;27.10;14.37;;;13.70;97.30;;;;;;5034333;28;20410;-82
2021/09/04 01:52:24;;;;;;;31.33;13.43;;;13.70;97.30;;;;;;5034713;28;20658;-82
2021/09/04 01:54:51;;;;;;;32.63;14.43;;;13.70;97.30;;;;;;5035460;28;20196;-82
2021/09/04 01:57:18;;;;;;;38.60;14.43;;;13.70;97.30;;;;;;5035348;28;20729;-82
2021/09/04 01:59:45;;;;;;;35.57;14.20;;;13.70;97.30;;;;;;5037854;28;20418;-82
2021/09/04 02:02:10;;;;;;;32.40;13.80;;;13.80;97.30;;;;;;5037700;28;20446;-82
2021/09/04 02:04:36;;;;;;;32.37;14.63;;;13.80;97.30;;;;;;5038065;28;20460;-82
2021/09/04 02:07:02;;;;;;;30.70;13.87;;;13.80;97.30;;;;;;5038323;28;20176;-82
2021/09/04 02:09:27;;;;;;;31.07;14.83;;;13.70;97.30;;;;;;5037732;28;20232;-82
2021/09/04 02:11:53;;;;;;;34.33;15.00;;;13.70;97.30;;;;;;5036508;28;20426;-82
2021/09/04 02:14:18;;;;;;;32.43;15.10;;;13.70;97.30;;;;;;5037383;28;20185;-82
2021/09/04 02:16:44;;;;;;;28.27;14.27;;;13.60;97.30;;;;;;5037630;28;20172;-82
2021/09/04 02:19:09;;;;;;;28.93;13.50;;;13.60;97.30;;;;;;5037739;28;20639;-82
2021/09/04 02:21:35;;;;;;;36.07;15.03;;;13.50;97.30;;;;;;5054686;28;20266;-83
2021/09/04 02:24:00;;;;;;;34.87;12.60;;;13.50;97.30;;;;;;5038735;28;20263;-82
2021/09/04 02:26:27;;;;;;;31.97;14.00;;;13.50;97.30;;;;;;5056258;28;20206;-82
2021/09/04 02:28:53;;;;;;;36.07;13.13;;;13.40;97.30;;;;;;5038406;28;20206;-82
2021/09/04 02:31:23;;;;;;;35.90;15.23;;;13.40;97.30;;;;;;5038420;28;20466;-82
2021/09/04 02:33:49;;;;;;;38.23;14.53;;;13.40;97.30;;;;;;5037196;28;20942;-82
2021/09/04 02:36:14;;;;;;;32.97;13.67;;;13.30;97.30;;;;;;5054073;28;20478;-82
2021/09/04 02:38:40;;;;;;;37.27;15.50;;;13.20;97.30;;;;;;5036700;28;20434;-82
2021/09/04 02:41:05;;;;;;;35.40;14.47;;;13.20;97.30;;;;;;5053611;28;20627;-83
2021/09/04 02:43:30;;;;;;;34.93;15.80;;;13.20;97.30;;;;;;5029604;28;20205;-82
2021/09/04 02:45:56;;;;;;;32.23;15.90;;;13.20;97.30;;;;;;5025971;28;20195;-82
2021/09/04 02:48:21;;;;;;;32.70;14.03;;;13.10;97.30;;;;;;5036888;28;20174;-83
2021/09/04 02:50:47;;;;;;;31.03;13.80;;;13.10;97.30;;;;;;5036443;28;20658;-82
2021/09/04 02:53:13;;;;;;;38.17;16.10;;;13.10;97.30;;;;;;5037254;28;20240;-82
2021/09/04 02:55:38;;;;;;;34.97;14.30;;;13.00;97.30;;;;;;5037897;28;20195;-82
2021/09/04 02:58:03;;;;;;;33.57;14.63;;;13.00;97.30;;;;;;5056030;28;20182;-82
2021/09/04 03:00:29;;;;;;;37.77;14.80;;;13.00;97.30;;;;;;5038125;28;21078;-82
2021/09/04 03:02:55;;;;;;;42.60;16.10;;;13.00;97.30;;;;;;5037448;28;20221;-82
2021/09/04 03:05:21;;;;;;;36.33;15.87;;;12.90;97.30;;;;;;5036606;28;20450;-82
2021/09/04 03:07:47;;;;;;;36.90;17.03;;;12.90;97.30;;;;;;5036091;28;20559;-82
2021/09/04 03:10:12;;;;;;;39.93;17.30;;;12.90;97.30;;;;;;5034113;28;20436;-82
2021/09/04 03:12:39;;;;;;;36.87;16.07;;;12.90;97.30;;;;;;5036019;28;20184;-82
2021/09/04 03:15:05;;;;;;;42.40;16.73;;;12.90;97.30;;;;;;5035756;28;20206;-82
2021/09/04 03:17:31;;;;;;;35.17;14.93;;;12.90;97.30;;;;;;5035891;28;20522;-82
2021/09/04 03:19:56;;;;;;;39.10;16.60;;;12.80;97.30;;;;;;5036001;28;20976;-83
2021/09/04 03:22:22;;;;;;;40.70;16.80;;;12.80;97.30;;;;;;5053832;28;20207;-83
2021/09/04 03:24:47;;;;;;;41.10;16.73;;;12.80;97.30;;;;;;5053999;28;20198;-82
2021/09/04 03:27:13;;;;;;;46.57;18.20;;;12.80;97.30;;;;;;5054888;28;20211;-82
2021/09/04 03:29:38;;;;;;;35.87;15.60;;;12.90;97.30;;;;;;5055723;28;20581;-82
2021/09/04 03:32:04;;;;;;;43.13;16.70;;;12.90;97.30;;;;;;5036638;28;20693;-82
2021/09/04 03:34:30;;;;;;;37.20;16.87;;;12.90;97.30;;;;;;5037040;28;20223;-82
2021/09/04 03:36:55;;;;;;;40.13;15.63;;;12.90;97.30;;;;;;5054083;28;20214;-82
2021/09/04 03:39:21;;;;;;;38.63;14.97;;;12.90;97.30;;;;;;5035780;28;20226;-81
2021/09/04 03:41:46;;;;;;;37.30;15.90;;;12.90;97.30;;;;;;5035367;28;20778;-82
2021/09/04 03:44:11;;;;;;;41.73;16.30;;;12.90;97.30;;;;;;5035698;28;20233;-82
2021/09/04 03:46:37;;;;;;;41.97;16.50;;;12.90;97.30;;;;;;5035264;28;20270;-83
2021/09/04 03:49:03;;;;;;;47.93;16.97;;;12.90;97.30;;;;;;5035669;28;20541;-82
2021/09/04 03:51:28;;;;;;;43.27;17.30;;;12.90;97.30;;;;;;5035244;28;20168;-83
2021/09/04 03:53:54;;;;;;;45.33;16.57;;;12.90;97.30;;;;;;5035453;28;20245;-82
2021/09/04 03:56:20;;;;;;;38.03;14.87;;;12.90;97.30;;;;;;5035678;28;20191;-83
2021/09/04 03:58:45;;;;;;;41.67;17.00;;;12.90;97.30;;;;;;5036970;28;20421;-82
2021/09/04 04:01:11;;;;;;;43.50;17.63;;;12.90;97.30;;;;;;5037563;28;20176;-82
2021/09/04 04:03:36;;;;;;;47.87;19.20;;;12.90;97.30;;;;;;5036604;28;20204;-82
2021/09/04 04:06:02;;;;;;;40.73;15.77;;;12.90;97.30;;;;;;5037093;28;20658;-82
2021/09/04 04:08:27;;;;;;;40.57;15.67;;;12.90;97.30;;;;;;5035640;28;20168;-83
2021/09/04 04:10:53;;;;;;;46.03;17.13;;;12.90;97.30;;;;;;5036080;28;20176;-83
2021/09/04 04:13:18;;;;;;;44.50;16.47;;;12.90;97.30;;;;;;5036128;28;20167;-82
2021/09/04 04:15:45;;;;;;;46.00;17.33;;;12.90;97.30;;;;;;5035651;28;20198;-82
2021/09/04 04:18:10;;;;;;;41.53;15.10;;;12.90;97.30;;;;;;5035341;28;20183;-82
2021/09/04 04:20:36;;;;;;;43.17;17.30;;;12.90;97.30;;;;;;5034603;28;20430;-83
2021/09/04 04:23:01;;;;;;;46.30;17.20;;;12.90;97.30;;;;;;5035000;28;20256;-82
2021/09/04 04:25:27;;;;;;;37.80;16.60;;;12.90;97.30;;;;;;5034979;28;20203;-83
2021/09/04 04:27:53;;;;;;;50.87;18.50;;;12.90;97.30;;;;;;5035388;28;20607;-83
2021/09/04 04:30:18;;;;;;;45.30;16.77;;;12.90;97.30;;;;;;5036204;28;20176;-83
2021/09/04 04:32:44;;;;;;;43.03;16.07;;;12.90;97.30;;;;;;5037072;28;20176;-83
2021/09/04 04:35:10;;;;;;;42.37;15.50;;;12.90;97.30;;;;;;5032757;28;20714;-83
2021/09/04 04:37:36;;;;;;;46.27;16.97;;;12.90;97.30;;;;;;5032840;28;20176;-83
2021/09/04 04:40:02;;;;;;;43.53;16.33;;;13.00;97.30;;;;;;5031251;28;20790;-83
2021/09/04 04:42:27;;;;;;;41.40;15.40;;;13.00;97.30;;;;;;5031121;28;20184;-83
2021/09/04 04:44:53;;;;;;;40.30;14.60;;;13.00;97.30;;;;;;5031073;28;20827;-83
2021/09/04 04:47:18;;;;;;;52.60;17.97;;;13.00;97.30;;;;;;5031351;28;20214;-83
2021/09/04 04:49:44;;;;;;;51.63;18.83;;;13.00;97.30;;;;;;5031095;28;20176;-83
2021/09/04 04:52:09;;;;;;;55.07;17.50;;;13.00;97.30;;;;;;5031088;28;20177;-83
2021/09/04 04:54:35;;;;;;;57.57;19.33;;;13.00;97.30;;;;;;5031391;28;20198;-83
2021/09/04 04:57:00;;;;;;;47.43;17.20;;;13.00;97.30;;;;;;5031428;28;20255;-83
2021/09/04 04:59:26;;;;;;;57.77;16.80;;;13.10;97.30;;;;;;5031513;28;20183;-83
2021/09/04 05:01:52;;;;;;;44.93;16.93;;;13.10;97.30;;;;;;5032341;28;20192;-83
2021/09/04 05:04:17;;;;;;;52.73;17.47;;;13.10;97.30;;;;;;5032627;28;20180;-83
2021/09/04 05:06:43;;;;;;;46.83;15.83;;;13.10;97.30;;;;;;5027328;28;20177;-83
2021/09/04 05:09:08;;;;;;;62.47;17.70;;;13.10;97.30;;;;;;5017811;28;20174;-83
2021/09/04 05:11:34;;;;;;;54.80;16.70;;;13.10;97.30;;;;;;5028676;28;20180;-83
2021/09/04 05:13:59;;;;;;;62.27;18.30;;;13.10;97.30;;;;;;5031900;28;20179;-83
2021/09/04 05:16:25;;;;;;;56.23;19.30;;;13.10;97.30;;;;;;5031280;28;20207;-83
2021/09/04 05:18:50;;;;;;;48.33;17.23;;;13.10;97.30;;;;;;5031044;28;20176;-83
2021/09/04 05:21:16;;;;;;;61.23;19.03;;;13.10;97.30;;;;;;5030286;28;20180;-83
2021/09/04 05:23:41;;;;;;;56.50;19.93;;;13.20;97.30;;;;;;5030376;28;20231;-83
2021/09/04 05:26:07;;;;;;;57.77;19.47;;;13.20;97.30;;;;;;5027955;28;20191;-83
2021/09/04 05:28:33;;;;;;;53.20;16.50;;;13.20;97.30;;;;;;5030884;28;20200;-83
2021/09/04 05:31:00;;;;;;;53.27;18.73;;;13.20;97.30;;;;;;5031097;28;20177;-83
2021/09/04 05:33:26;;;;;;;48.03;16.60;;;13.20;97.30;;;;;;5032772;28;20176;-83
2021/09/04 05:35:52;;;;;;;55.77;16.87;;;13.20;97.30;;;;;;5036117;28;20478;-83
2021/09/04 05:38:17;;;;;;;48.33;16.17;;;13.20;97.30;;;;;;5036364;28;20425;-84
2021/09/04 05:40:43;;;;;;;46.97;16.83;;;13.20;97.30;;;;;;5028562;28;20180;-83
2021/09/04 05:43:08;;;;;;;43.13;15.73;;;13.20;97.30;;;;;;5035085;28;20192;-83
2021/09/04 05:45:34;;;;;;;48.37;15.50;;;13.20;97.30;;;;;;5025015;28;20231;-83
2021/09/04 05:47:59;;;;;;;55.43;16.63;;;13.30;97.30;;;;;;5031899;28;20170;-83
2021/09/04 05:50:25;;;;;;;42.83;16.07;;;13.30;97.30;;;;;;5020682;28;20185;-83
2021/09/04 05:52:51;;;;;;;45.50;15.63;;;13.30;97.30;;;;;;5014703;28;20177;-83
2021/09/04 05:55:16;;;;;;;44.40;15.37;;;13.30;97.30;;;;;;5025143;28;20675;-83
2021/09/04 05:57:42;;;;;;;39.83;13.17;;;13.40;97.30;;;;;;5031345;28;20177;-83
2021/09/04 06:00:08;;;;;;;39.50;12.17;;;13.40;97.30;;;;;;5018251;28;20267;-83
2021/09/04 06:02:33;;;;;;;42.50;12.33;;;13.40;97.30;;;;;;5028505;28;20203;-83
2021/09/04 06:04:59;;;;;;;41.87;12.70;;;13.40;97.30;;;;;;5017805;28;20791;-83
2021/09/04 06:07:25;;;;;;;41.97;13.70;;;13.40;97.30;;;;;;5035863;28;20172;-83
2021/09/04 06:09:50;;;;;;;43.27;13.17;;;13.40;97.30;;;;;;5034502;28;20259;-83
2021/09/04 06:12:16;;;;;;;41.97;15.00;;;13.50;97.30;;;;;;5033369;28;20179;-83
2021/09/04 06:14:41;;;;;;;36.73;11.73;;;13.50;97.30;;;;;;5022170;28;20285;-84
2021/09/04 06:17:07;;;;;;;41.60;13.00;;;13.60;97.30;;;;;;5030345;28;20272;-85
2021/09/04 06:19:33;;;;;;;30.53;12.47;;;13.70;97.30;;;;;;5028352;28;20180;-84
2021/09/04 06:21:59;;;;;;;34.67;12.63;;;13.70;97.30;;;;;;5015807;28;20193;-83
2021/09/04 06:24:24;;;;;;;38.77;13.00;;;13.70;97.30;;;;;;5033044;28;20192;-83
2021/09/04 06:26:50;;;;;;;48.67;13.33;;;13.80;97.30;;;;;;5021502;28;20169;-83
2021/09/04 06:29:15;;;;;;;43.33;14.00;;;13.80;97.30;;;;;;5016704;28;20545;-83
2021/09/04 06:31:41;;;;;;;38.73;14.00;;;13.80;97.30;;;;;;5029718;28;20624;-84
2021/09/04 06:34:06;;;;;;;47.67;15.43;;;13.90;97.30;;;;;;5016657;28;20255;-83
2021/09/04 06:36:32;;;;;;;46.70;14.43;;;13.90;97.30;;;;;;5027837;28;20228;-83
2021/09/04 06:38:57;;;;;;;50.67;16.53;;;13.90;97.30;;;;;;5016157;28;20251;-82
2021/09/04 06:41:23;;;;;;;51.03;17.43;;;13.90;97.30;;;;;;5014306;28;20169;-84
2021/09/04 06:43:49;;;;;;;46.73;16.63;;;14.00;97.30;;;;;;5031995;28;20187;-83
2021/09/04 06:46:14;;;;;;;47.70;15.43;;;14.00;97.30;;;;;;5031438;28;20185;-82
2021/09/04 06:48:40;;;;;;;58.03;15.67;;;14.00;97.30;;;;;;5024264;28;20208;-84
2021/09/04 06:51:08;;;;;;;51.67;18.57;;;14.10;97.30;;;;;;5023410;28;20722;-83
2021/09/04 06:53:33;;;;;;;47.97;18.23;;;14.10;97.30;;;;;;5025880;28;20189;-83
2021/09/04 06:55:59;;;;;;;61.87;20.70;;;14.20;97.30;;;;;;5032144;28;20578;-83
2021/09/04 06:58:24;;;;;;;60.47;20.70;;;14.20;97.30;;;;;;5017379;28;20187;-83
2021/09/04 07:00:50;;;;;;;52.63;19.80;;;14.30;97.30;;;;;;5016270;28;20747;-84
2021/09/04 07:03:16;;;;;;;61.03;20.60;;;14.30;97.30;;;;;;5022055;28;20214;-83
2021/09/04 07:05:41;;;;;;;60.30;21.20;;;14.30;97.30;;;;;;5027559;28;20200;-84
2021/09/04 07:08:07;;;;;;;61.20;21.07;;;14.40;97.30;;;;;;5032729;28;20169;-83
2021/09/04 07:10:32;;;;;;;59.47;21.33;;;14.40;97.30;;;;;;5019119;28;20169;-83
2021/09/04 07:12:58;;;;;;;63.87;20.50;;;14.40;97.30;;;;;;5033125;28;20192;-84
2021/09/04 07:15:24;;;;;;;56.87;20.57;;;14.50;97.30;;;;;;5032824;28;20200;-83
2021/09/04 07:17:49;;;;;;;62.50;23.43;;;14.50;97.30;;;;;;5033018;28;20933;-84
2021/09/04 07:20:15;;;;;;;63.70;20.63;;;14.50;97.30;;;;;;5031660;28;20185;-84
2021/09/04 07:22:40;;;;;;;51.77;19.67;;;14.60;97.30;;;;;;5027810;28;20539;-83
2021/09/04 07:25:06;;;;;;;58.07;19.00;;;14.60;97.30;;;;;;5034307;28;20790;-83
2021/09/04 07:27:32;;;;;;;55.47;17.80;;;14.60;97.30;;;;;;5034126;28;20184;-83
2021/09/04 07:29:57;;;;;;;44.13;16.70;;;14.60;97.30;;;;;;5033568;28;20412;-83
2021/09/04 07:32:23;;;;;;;42.03;16.33;;;14.70;97.30;;;;;;5032347;28;20660;-83
2021/09/04 07:34:49;;;;;;;45.17;15.70;;;14.70;97.30;;;;;;5032301;28;20553;-83
2021/09/04 07:37:14;;;;;;;52.83;17.30;;;14.70;97.30;;;;;;5032333;28;20172;-83
2021/09/04 07:39:40;;;;;;;51.37;16.23;;;14.80;97.30;;;;;;5032039;28;20538;-83
2021/09/04 07:42:06;;;;;;;34.13;14.43;;;14.80;97.30;;;;;;5031597;28;20270;-83
2021/09/04 07:44:31;;;;;;;41.83;16.30;;;14.80;97.30;;;;;;5031853;28;20270;-83
2021/09/04 07:46:57;;;;;;;41.67;14.63;;;14.80;97.30;;;;;;5032308;28;20250;-83
2021/09/04 07:49:22;;;;;;;38.93;14.07;;;14.90;97.30;;;;;;5032958;28;20177;-83
2021/09/04 07:51:48;;;;;;;38.20;12.73;;;14.90;97.30;;;;;;5033652;28;20343;-83
2021/09/04 07:54:13;;;;;;;28.80;11.53;;;14.90;97.30;;;;;;5034034;28;20208;-83
2021/09/04 07:56:39;;;;;;;33.20;11.83;;;14.90;97.30;;;;;;5033018;28;20609;-83
2021/09/04 07:59:06;;;;;;;31.23;12.20;;;14.90;97.30;;;;;;5033586;28;20550;-83
2021/09/04 08:01:33;;;;;;;37.03;12.80;;;15.00;97.30;;;;;;5032128;28;20168;-84
2021/09/04 08:03:59;;;;;;;32.67;11.93;;;15.00;97.30;;;;;;5032145;28;20415;-83
2021/09/04 08:06:24;;;;;;;36.60;12.83;;;15.00;97.30;;;;;;5032157;28;20788;-83
2021/09/04 08:08:50;;;;;;;35.10;12.90;;;15.00;97.30;;;;;;5031839;28;20179;-83
2021/09/04 08:11:15;;;;;;;32.50;12.10;;;15.00;97.30;;;;;;5031577;28;20180;-83
2021/09/04 08:13:41;;;;;;;33.07;11.40;;;15.00;97.30;;;;;;5031815;28;20214;-83
2021/09/04 08:16:06;;;;;;;30.77;11.43;;;15.00;97.30;;;;;;5031457;28;20192;-83
2021/09/04 08:18:32;;;;;;;31.60;12.40;;;15.00;97.30;;;;;;5031757;28;20180;-83
2021/09/04 08:20:57;;;;;;;33.00;13.00;;;15.00;97.30;;;;;;5032762;28;20169;-83
2021/09/04 08:23:23;;;;;;;33.27;12.10;;;15.00;97.30;;;;;;5033511;28;20184;-83
2021/09/04 08:25:49;;;;;;;38.03;11.67;;;15.00;97.30;;;;;;5032879;28;20188;-83
2021/09/04 08:28:14;;;;;;;32.77;11.80;;;15.00;97.30;;;;;;5033168;28;20179;-83
2021/09/04 08:30:40;;;;;;;28.97;11.43;;;15.00;97.30;;;;;;5031959;28;20226;-83
2021/09/04 08:33:06;;;;;;;32.50;12.00;;;15.00;97.30;;;;;;5032181;28;20172;-83
2021/09/04 08:35:32;;;;;;;34.87;12.50;;;15.00;97.30;;;;;;5031252;28;20274;-83
2021/09/04 08:37:59;;;;;;;39.90;13.20;;;15.00;97.30;;;;;;5031576;28;20423;-83
2021/09/04 08:40:25;;;;;;;40.70;14.20;;;15.00;97.30;;;;;;5014535;28;20449;-83
2021/09/04 08:42:51;;;;;;;34.20;12.67;;;15.00;97.30;;;;;;5030844;28;20557;-83
2021/09/04 08:45:17;;;;;;;43.40;13.50;;;15.00;97.30;;;;;;5031289;28;20605;-83
2021/09/04 08:47:45;;;;;;;38.27;12.50;;;15.00;97.30;;;;;;5031901;28;20172;-83
2021/09/04 08:50:11;;;;;;;41.90;13.80;;;15.00;97.30;;;;;;5032204;28;20240;-83
2021/09/04 08:52:37;;;;;;;34.57;13.70;;;15.10;97.30;;;;;;5033226;28;20968;-83
2021/09/04 08:55:03;;;;;;;35.30;12.27;;;15.10;97.30;;;;;;5032736;28;20485;-83
2021/09/04 08:57:29;;;;;;;38.57;13.57;;;15.10;97.30;;;;;;5032403;28;20219;-83
2021/09/04 09:00:01;;;;;;;34.80;12.63;;;15.20;97.30;;;;;;5032334;28;20427;-83
2021/09/04 09:02:27;;;;;;;27.90;12.30;;;15.20;97.30;;;;;;5032189;28;20892;-83
2021/09/04 09:05:19;;;;;;;32.30;11.50;;;15.30;97.30;;;;;;5032317;28;20464;-82
2021/09/04 09:07:46;;;;;;;38.47;13.20;;;15.30;97.30;;;;;;5029177;28;20419;-83
2021/09/04 09:10:21;;;;;;;38.33;13.10;;;15.30;97.30;;;;;;5035327;28;20508;-82
2021/09/04 09:12:50;;;;;;;34.97;12.90;;;15.40;97.30;;;;;;5034732;28;20438;-83
2021/09/04 09:15:24;;;;;;;37.43;13.70;;;15.40;97.30;;;;;;5035107;28;20874;-83
2021/09/04 09:18:00;;;;;;;44.60;13.77;;;15.40;97.30;;;;;;5035183;28;20415;-83
2021/09/04 09:20:26;;;;;;;39.00;13.97;;;15.40;97.30;;;;;;5036367;28;20779;-83
2021/09/04 09:22:52;;;;;;;38.13;13.57;;;15.40;97.30;;;;;;5037033;28;20450;-83
2021/09/04 09:25:19;;;;;;;39.70;14.07;;;15.40;97.30;;;;;;5036823;28;20453;-83
2021/09/04 09:27:58;;;;;;;38.87;12.70;;;15.40;97.30;;;;;;5036350;28;20429;-83
2021/09/04 09:30:36;;;;;;;42.93;13.53;;;15.40;97.30;;;;;;5034850;28;20499;-83
2021/09/04 09:33:05;;;;;;;40.17;13.30;;;15.50;97.30;;;;;;5035430;28;20422;-83
2021/09/04 09:35:55;;;;;;;33.33;11.23;;;15.50;97.30;;;;;;5034738;28;20466;-83
2021/09/04 09:38:23;;;;;;;35.43;11.37;;;15.50;97.30;;;;;;5034646;28;20422;-83
2021/09/04 09:40:52;;;;;;;54.87;14.80;;;15.50;97.30;;;;;;5034116;28;20419;-83
2021/09/04 09:43:32;;;;;;;34.20;13.10;;;15.50;97.30;;;;;;5034795;28;20455;-83
2021/09/04 09:46:01;;;;;;;31.83;11.33;;;15.50;97.30;;;;;;5034575;28;20809;-83
2021/09/04 09:48:29;;;;;;;38.87;12.60;;;15.50;97.30;;;;;;5034976;28;20422;-83
2021/09/04 09:50:57;;;;;;;36.53;13.00;;;15.50;97.30;;;;;;5035863;28;20416;-83
2021/09/04 09:53:24;;;;;;;32.00;11.60;;;15.50;97.30;;;;;;5036692;28;20431;-83
2021/09/04 09:55:52;;;;;;;27.80;10.97;;;15.60;97.30;;;;;;5036351;28;20437;-83
2021/09/04 09:58:20;;;;;;;33.37;12.30;;;15.60;97.30;;;;;;5034794;28;20941;-83
2021/09/04 10:00:48;;;;;;;33.10;13.23;;;15.60;97.30;;;;;;5034406;28;20427;-83
2021/09/04 10:03:14;;;;;;;38.93;11.30;;;15.60;97.30;;;;;;5034465;28;20451;-83
2021/09/04 10:05:41;;;;;;;33.57;11.27;;;15.60;97.30;;;;;;5034432;28;20972;-83
2021/09/04 10:08:06;;;;;;;35.10;11.27;;;15.60;97.30;;;;;;5034177;28;20407;-83
2021/09/04 10:10:35;;;;;;;37.70;11.77;;;15.60;97.30;;;;;;5033639;28;21118;-83
2021/09/04 10:13:01;;;;;;;29.07;12.43;;;15.60;97.30;;;;;;5034521;28;20226;-83
2021/09/04 10:15:32;;;;;;;32.07;12.90;;;15.70;97.30;;;;;;5034073;28;20470;-83
2021/09/04 10:18:00;;;;;;;33.77;12.10;;;15.70;97.30;;;;;;5034674;28;20404;-83
2021/09/04 10:20:28;;;;;;;32.57;12.73;;;15.70;97.30;;;;;;5051462;28;20446;-83
2021/09/04 10:23:09;;;;;;;35.67;11.60;;;15.70;97.30;;;;;;5052644;28;20463;-82
2021/09/04 10:25:35;;;;;;;31.60;11.70;;;15.80;97.30;;;;;;5052570;28;20514;-82
2021/09/04 10:28:02;;;;;;;29.17;11.70;;;15.80;97.30;;;;;;5052489;28;20411;-83
2021/09/04 10:30:30;;;;;;;32.13;11.00;;;15.80;97.30;;;;;;5052022;28;20229;-83
2021/09/04 10:33:11;;;;;;;35.03;14.23;;;15.90;97.30;;;;;;5050456;28;20437;-82
2021/09/04 10:35:40;;;;;;;35.67;11.77;;;15.90;97.30;;;;;;5034928;28;20867;-83
2021/09/04 10:38:22;;;;;;;30.10;11.73;;;16.00;97.30;;;;;;5033991;28;20442;-83
2021/09/04 10:40:50;;;;;;;32.80;12.40;;;16.00;97.30;;;;;;5033983;28;20980;-83
2021/09/04 10:43:18;;;;;;;30.90;13.43;;;16.00;97.30;;;;;;5033967;28;20459;-83
2021/09/04 10:45:47;;;;;;;32.90;10.70;;;15.90;97.30;;;;;;5033577;28;20439;-83
2021/09/04 10:48:14;;;;;;;30.87;13.13;;;15.90;97.30;;;;;;5024957;28;20419;-83
2021/09/04 10:50:41;;;;;;;31.73;11.20;;;15.90;97.30;;;;;;5034133;28;20412;-83
2021/09/04 10:53:07;;;;;;;30.63;11.90;;;15.80;97.30;;;;;;5035057;28;20423;-83
2021/09/04 10:55:42;;;;;;;30.63;12.77;;;15.80;97.30;;;;;;5035544;28;20435;-83
2021/09/04 10:58:15;;;;;;;30.27;11.90;;;15.90;97.30;;;;;;5034921;28;20795;-83
2021/09/04 11:00:45;;;;;;;29.60;11.80;;;15.90;97.30;;;;;;5034212;28;20407;-83
2021/09/04 11:03:22;;;;;;;35.07;12.90;;;15.90;97.30;;;;;;5033955;28;20459;-83
2021/09/04 11:06:05;;;;;;;31.20;11.37;;;15.90;97.30;;;;;;5033727;28;20427;-83
2021/09/04 11:08:43;;;;;;;30.00;11.70;;;15.90;97.30;;;;;;5032651;28;21011;-83
2021/09/04 11:11:12;;;;;;;32.20;11.57;;;15.90;97.30;;;;;;5046805;28;20411;-83
2021/09/04 11:13:39;;;;;;;28.20;11.60;;;15.90;97.30;;;;;;5033008;28;20921;-83
2021/09/04 11:16:25;;;;;;;37.60;13.20;;;15.80;97.30;;;;;;5033220;28;20439;-83
2021/09/04 11:18:51;;;;;;;35.30;11.33;;;15.80;97.30;;;;;;5033286;28;20935;-83
2021/09/04 11:21:17;;;;;;;35.90;12.70;;;15.80;97.30;;;;;;5034164;28;20455;-83
2021/09/04 11:23:43;;;;;;;32.37;12.57;;;15.80;97.30;;;;;;5034639;28;20564;-83
2021/09/04 11:26:09;;;;;;;33.33;12.10;;;15.80;97.30;;;;;;5034278;28;20450;-83
2021/09/04 11:28:35;;;;;;;30.97;12.30;;;15.80;97.30;;;;;;5033739;28;20171;-83
2021/09/04 11:31:01;;;;;;;32.50;12.93;;;15.90;97.30;;;;;;5038270;28;20168;-83
2021/09/04 11:33:27;;;;;;;28.00;10.50;;;15.90;97.30;;;;;;5033082;28;20423;-81
2021/09/04 11:35:56;;;;;;;27.57;11.57;;;15.90;97.30;;;;;;5033590;28;20525;-83
2021/09/04 11:38:23;;;;;;;27.37;11.93;;;16.00;97.30;;;;;;5032715;28;20954;-83
2021/09/04 11:40:51;;;;;;;31.13;12.10;;;16.00;97.30;;;;;;5031935;28;20450;-83
2021/09/04 11:43:18;;;;;;;31.47;13.30;;;16.00;97.30;;;;;;5032742;28;20447;-83
2021/09/04 11:45:44;;;;;;;39.13;13.50;;;16.10;97.30;;;;;;5032407;28;20530;-83
2021/09/04 11:48:12;;;;;;;37.33;14.30;;;16.10;97.30;;;;;;5032585;28;20490;-83
2021/09/04 11:50:38;;;;;;;33.47;13.60;;;16.10;97.30;;;;;;5032452;28;20169;-83
2021/09/04 11:53:14;;;;;;;30.97;13.27;;;16.10;97.30;;;;;;5033540;28;20427;-82
2021/09/04 11:55:40;;;;;;;28.80;13.03;;;16.10;97.30;;;;;;5033622;28;20550;-83
2021/09/04 11:58:13;;;;;;;41.03;12.87;;;16.10;97.30;;;;;;5033807;28;20419;-83
2021/09/04 12:00:41;;;;;;;31.10;12.97;;;16.20;97.30;;;;;;5032374;28;20420;-83
2021/09/04 12:03:09;;;;;;;31.27;12.63;;;16.20;97.30;;;;;;5032877;28;20451;-83
2021/09/04 12:05:41;;;;;;;31.23;13.23;;;16.20;97.30;;;;;;5032684;28;20797;-82
2021/09/04 12:08:25;;;;;;;27.87;12.60;;;16.20;97.30;;;;;;5031757;28;20416;-83
2021/09/04 12:10:51;;;;;;;27.37;11.90;;;16.30;97.30;;;;;;5031408;28;20435;-83
2021/09/04 12:13:25;;;;;;;27.43;12.23;;;16.30;97.30;;;;;;5021362;28;20466;-83
2021/09/04 12:16:03;;;;;;;31.07;12.27;;;16.30;97.30;;;;;;5020647;28;20200;-83
2021/09/04 12:18:35;;;;;;;30.07;12.03;;;16.30;97.30;;;;;;5032020;28;20572;-83
2021/09/04 12:21:18;;;;;;;29.53;13.23;;;16.40;97.30;;;;;;5032782;28;20419;-83
2021/09/04 12:23:46;;;;;;;28.33;10.87;;;16.40;97.30;;;;;;5033477;28;20454;-83
2021/09/04 12:26:12;;;;;;;28.90;13.13;;;16.40;97.30;;;;;;5033297;28;20443;-83